Time;durP1;ratioP1;P1;durP2;ratioP2;P2;SDS_P1;SDS_P2;PMS_P1;PMS_P2;Temp;Humidity;BMP_temperature;BMP_pressure;BME280_temperature;BME280_humidity;BME280_pressure;Samples;Min_cycle;Max_cycle;Signal;HPM_P1;HPM_P2
2023/05/07 00:02:05;;;;;;;;;;;18.60;66.40;;;;;;5052491;28;828;-69
2023/05/07 00:04:36;;;;;;;;;;;18.60;66.40;;;;;;5052114;28;1193;-69
2023/05/07 00:07:02;;;;;;;;;;;18.60;66.40;;;;;;5052528;28;914;-69
2023/05/07 00:09:27;;;;;;;;;;;18.60;67.20;;;;;;5051157;28;904;-69
2023/05/07 00:11:53;;;;;;;;;;;18.60;66.40;;;;;;5084896;28;1965;-69
2023/05/07 00:14:18;;;;;;;;;;;18.50;66.40;;;;;;5051810;28;1275;-69
2023/05/07 00:16:44;;;;;;;;;;;18.50;66.40;;;;;;5051839;28;848;-69
2023/05/07 00:19:09;;;;;;;;;;;18.50;66.40;;;;;;5052067;28;1304;-69
2023/05/07 00:21:35;;;;;;;;;;;18.50;66.50;;;;;;5050968;28;877;-69
2023/05/07 00:24:00;;;;;;;;;;;18.50;66.50;;;;;;5051654;28;781;-69
2023/05/07 00:26:26;;;;;;;;;;;18.50;66.40;;;;;;5052282;28;1287;-69
2023/05/07 00:28:51;;;;;;;;;;;18.50;66.50;;;;;;5051522;28;800;-70
2023/05/07 00:31:17;;;;;;;;;;;18.50;66.50;;;;;;5051910;28;1902;-70
2023/05/07 00:33:42;;;;;;;;;;;18.50;66.50;;;;;;5052032;28;1432;-70
2023/05/07 00:36:08;;;;;;;;;;;18.50;66.50;;;;;;5084205;28;1357;-70
2023/05/07 00:38:33;;;;;;;;;;;18.50;66.50;;;;;;5051846;28;838;-70
2023/05/07 00:40:59;;;;;;;;;;;18.50;66.50;;;;;;5051505;28;835;-70
2023/05/07 00:43:24;;;;;;;;;;;18.50;66.50;;;;;;5050677;28;935;-70
2023/05/07 00:45:50;;;;;;;;;;;18.50;66.60;;;;;;5049619;28;1345;-70
2023/05/07 00:48:15;;;;;;;;;;;18.50;66.50;;;;;;5051246;28;852;-69
2023/05/07 00:50:41;;;;;;;;;;;18.50;66.60;;;;;;5049649;28;1894;-70
2023/05/07 00:53:06;;;;;;;;;;;18.50;66.60;;;;;;5083416;28;879;-70
2023/05/07 00:55:32;;;;;;;;;;;18.50;66.60;;;;;;5050708;28;1261;-70
2023/05/07 00:57:57;;;;;;;;;;;18.50;66.60;;;;;;5049903;28;839;-71
2023/05/07 01:00:24;;;;;;;;;;;18.50;66.60;;;;;;5051423;28;882;-70
2023/05/07 01:02:50;;;;;;;;;;;18.50;66.60;;;;;;5066235;28;1643;-70
2023/05/07 01:05:15;;;;;;;;;;;18.50;66.70;;;;;;5050882;28;1245;-70
2023/05/07 01:07:41;;;;;;;;;;;18.50;66.60;;;;;;5082797;28;922;-70
2023/05/07 01:10:07;;;;;;;;;;;18.50;66.60;;;;;;5050452;28;1906;-69
2023/05/07 01:12:32;;;;;;;;;;;18.50;66.70;;;;;;5082936;28;833;-70
2023/05/07 01:14:58;;;;;;;;;;;18.40;66.60;;;;;;5082680;28;1344;-70
2023/05/07 01:17:23;;;;;;;;;;;18.40;66.60;;;;;;5050649;28;796;-69
2023/05/07 01:19:49;;;;;;;;;;;18.40;66.60;;;;;;5051539;28;1150;-69
2023/05/07 01:22:16;;;;;;;;;;;18.50;66.70;;;;;;5046316;28;840;-70
2023/05/07 01:24:41;;;;;;;;;;;18.40;66.60;;;;;;5048554;28;1432;-69
2023/05/07 01:27:07;;;;;;;;;;;18.40;66.60;;;;;;5083710;28;1041;-69
2023/05/07 01:29:32;;;;;;;;;;;18.40;66.70;;;;;;5083470;28;883;-69
2023/05/07 01:31:58;;;;;;;;;;;18.40;66.70;;;;;;5051013;28;1898;-69
2023/05/07 01:34:24;;;;;;;;;;;18.40;66.70;;;;;;5051354;28;1287;-69
2023/05/07 01:36:50;;;;;;;;;;;18.40;66.70;;;;;;5050831;28;867;-69
2023/05/07 01:39:15;;;;;;;;;;;18.40;66.70;;;;;;5065825;28;1306;-70
2023/05/07 01:41:41;;;;;;;;;;;18.40;66.70;;;;;;5081781;28;1077;-69
2023/05/07 01:44:06;;;;;;;;;;;18.40;66.70;;;;;;5050313;28;1323;-69
2023/05/07 01:46:32;;;;;;;;;;;18.40;66.70;;;;;;5044773;28;989;-70
2023/05/07 01:48:57;;;;;;;;;;;18.40;66.70;;;;;;5050592;28;885;-69
2023/05/07 01:51:23;;;;;;;;;;;18.50;66.80;;;;;;5082669;28;1909;-69
2023/05/07 01:53:50;;;;;;;;;;;18.40;66.70;;;;;;5049748;28;883;-69
2023/05/07 01:56:18;;;;;;;;;;;18.40;66.70;;;;;;5050081;28;1237;-69
2023/05/07 01:58:45;;;;;;;;;;;18.40;66.70;;;;;;5049774;28;784;-69
2023/05/07 02:01:11;;;;;;;;;;;18.40;66.80;;;;;;5050794;28;887;-69
2023/05/07 02:03:36;;;;;;;;;;;18.40;66.80;;;;;;5050413;28;1018;-69
2023/05/07 02:06:02;;;;;;;;;;;18.40;66.80;;;;;;5049833;28;1275;-69
2023/05/07 02:08:27;;;;;;;;;;;18.40;66.80;;;;;;5065278;28;1260;-69
2023/05/07 02:10:53;;;;;;;;;;;18.40;66.80;;;;;;5050018;28;1914;-69
2023/05/07 02:13:19;;;;;;;;;;;18.40;66.80;;;;;;5049594;28;832;-70
2023/05/07 02:15:49;;;;;;;;;;;18.40;66.80;;;;;;5049801;28;1349;-69
2023/05/07 02:18:15;;;;;;;;;;;18.40;66.90;;;;;;5049234;28;935;-70
2023/05/07 02:20:41;;;;;;;;;;;18.40;66.80;;;;;;5049804;28;821;-70
2023/05/07 02:23:06;;;;;;;;;;;18.40;66.90;;;;;;5049744;28;938;-70
2023/05/07 02:25:31;;;;;;;;;;;18.40;66.90;;;;;;5049566;28;1356;-70
2023/05/07 02:27:57;;;;;;;;;;;18.40;66.90;;;;;;5049931;28;862;-70
2023/05/07 02:30:23;;;;;;;;;;;18.40;66.90;;;;;;5049646;28;1961;-70
2023/05/07 02:32:49;;;;;;;;;;;18.40;66.90;;;;;;5049909;28;804;-70
2023/05/07 02:35:15;;;;;;;;;;;18.40;66.90;;;;;;5049559;28;1385;-70
2023/05/07 02:37:40;;;;;;;;;;;18.40;66.90;;;;;;5049789;28;820;-70
2023/05/07 02:40:06;;;;;;;;;;;18.40;66.90;;;;;;5082048;28;814;-69
2023/05/07 02:42:31;;;;;;;;;;;18.40;66.90;;;;;;5049822;28;894;-70
2023/05/07 02:44:57;;;;;;;;;;;18.40;66.90;;;;;;5049301;28;1256;-70
2023/05/07 02:47:22;;;;;;;;;;;18.40;66.90;;;;;;5050215;28;821;-70
2023/05/07 02:49:48;;;;;;;;;;;18.40;66.90;;;;;;5049595;28;1902;-70
2023/05/07 02:52:13;;;;;;;;;;;18.40;66.90;;;;;;5050819;28;786;-70
2023/05/07 02:54:39;;;;;;;;;;;18.40;66.90;;;;;;5053928;28;1290;-70
2023/05/07 02:57:04;;;;;;;;;;;18.40;66.90;;;;;;5053283;28;963;-69
2023/05/07 02:59:30;;;;;;;;;;;18.40;67.00;;;;;;5053217;28;863;-70
2023/05/07 03:01:55;;;;;;;;;;;18.40;67.00;;;;;;5053146;28;860;-70
2023/05/07 03:04:20;;;;;;;;;;;18.40;66.90;;;;;;5052778;28;1341;-70
2023/05/07 03:06:46;;;;;;;;;;;18.40;66.90;;;;;;5051910;28;947;-70
2023/05/07 03:09:11;;;;;;;;;;;18.40;67.70;;;;;;5053251;28;990;-69
2023/05/07 03:11:37;;;;;;;;;;;18.40;67.00;;;;;;5051591;28;1954;-70
2023/05/07 03:14:02;;;;;;;;;;;18.30;66.90;;;;;;5052701;28;765;-70
2023/05/07 03:16:28;;;;;;;;;;;18.30;66.90;;;;;;5052754;28;1300;-70
2023/05/07 03:18:53;;;;;;;;;;;18.30;67.00;;;;;;5052871;28;930;-70
2023/05/07 03:21:19;;;;;;;;;;;18.30;66.90;;;;;;5052570;28;880;-70
2023/05/07 03:23:44;;;;;;;;;;;18.30;66.90;;;;;;5052612;28;760;-70
2023/05/07 03:26:10;;;;;;;;;;;18.40;67.00;;;;;;5084917;28;1259;-70
2023/05/07 03:28:36;;;;;;;;;;;18.40;67.00;;;;;;5052622;28;915;-69
2023/05/07 03:31:01;;;;;;;;;;;18.30;67.00;;;;;;5051940;28;1906;-70
2023/05/07 03:33:27;;;;;;;;;;;18.40;67.00;;;;;;5052337;28;1441;-69
2023/05/07 03:35:52;;;;;;;;;;;18.40;67.10;;;;;;5051052;28;1340;-69
2023/05/07 03:38:18;;;;;;;;;;;18.30;67.00;;;;;;5052362;28;816;-70
2023/05/07 03:40:43;;;;;;;;;;;18.30;67.00;;;;;;5084663;28;1006;-69
2023/05/07 03:43:09;;;;;;;;;;;18.30;67.00;;;;;;5052402;28;919;-69
2023/05/07 03:45:35;;;;;;;;;;;18.30;67.00;;;;;;5051673;28;1299;-70
2023/05/07 03:48:00;;;;;;;;;;;18.30;67.00;;;;;;5051115;28;930;-69
2023/05/07 03:50:25;;;;;;;;;;;18.30;67.00;;;;;;5052212;28;1902;-69
2023/05/07 03:52:51;;;;;;;;;;;18.30;67.00;;;;;;5055534;28;1254;-70
2023/05/07 03:55:16;;;;;;;;;;;18.30;67.00;;;;;;5051555;28;1267;-70
2023/05/07 03:57:42;;;;;;;;;;;18.30;67.10;;;;;;5050575;28;903;-70
2023/05/07 04:00:08;;;;;;;;;;;18.30;67.00;;;;;;5051411;28;840;-70
2023/05/07 04:02:33;;;;;;;;;;;18.30;67.00;;;;;;5051368;28;784;-69
2023/05/07 04:04:59;;;;;;;;;;;18.30;67.00;;;;;;5049870;28;1383;-69
2023/05/07 04:07:24;;;;;;;;;;;18.30;67.00;;;;;;5051530;28;908;-69
2023/05/07 04:09:50;;;;;;;;;;;18.30;67.00;;;;;;5051360;28;888;-69
2023/05/07 04:12:15;;;;;;;;;;;18.30;67.00;;;;;;5051512;28;1934;-70
2023/05/07 04:14:41;;;;;;;;;;;18.40;66.90;;;;;;5083342;28;1263;-69
2023/05/07 04:17:07;;;;;;;;;;;18.40;66.90;;;;;;5051547;28;879;-69
2023/05/07 04:19:35;;;;;;;;;;;18.40;66.80;;;;;;5051238;28;884;-70
2023/05/07 04:22:01;;;;;;;;;;;18.40;66.70;;;;;;5050456;28;907;-69
2023/05/07 04:24:26;;;;;;;;;;;18.50;67.30;;;;;;5051002;28;1283;-70
2023/05/07 04:26:52;;;;;;;;;;;18.50;66.50;;;;;;5051508;28;890;-70
2023/05/07 04:29:18;;;;;;;;;;;18.50;66.60;;;;;;5051342;28;847;-69
2023/05/07 04:31:44;;;;;;;;;;;18.60;66.20;;;;;;5083812;28;1893;-69
2023/05/07 04:34:10;;;;;;;;;;;18.60;66.10;;;;;;5050720;28;1394;-69
2023/05/07 04:36:37;;;;;;;;;;;18.60;66.00;;;;;;5051433;28;796;-70
2023/05/07 04:39:03;;;;;;;;;;;18.70;66.00;;;;;;5083576;28;922;-69
2023/05/07 04:41:28;;;;;;;;;;;18.70;65.80;;;;;;5084496;28;1122;-70
2023/05/07 04:43:54;;;;;;;;;;;18.80;65.70;;;;;;5084356;28;858;-69
2023/05/07 04:46:19;;;;;;;;;;;18.80;65.60;;;;;;5050987;28;1384;-69
2023/05/07 04:48:45;;;;;;;;;;;18.90;65.40;;;;;;5083371;28;890;-69
2023/05/07 04:51:10;;;;;;;;;;;19.10;65.30;;;;;;5051017;28;1910;-69
2023/05/07 04:53:36;;;;;;;;;;;19.20;65.00;;;;;;5050923;28;902;-69
2023/05/07 04:56:02;;;;;;;;;;;19.30;64.70;;;;;;5050625;28;1342;-70
2023/05/07 04:58:31;;;;;;;;;;;19.40;64.30;;;;;;5044389;28;859;-69
2023/05/07 05:00:57;;;;;;;;;;;19.60;64.10;;;;;;5050702;28;832;-70
2023/05/07 05:03:22;;;;;;;;;;;19.60;63.70;;;;;;5050582;28;962;-70
2023/05/07 05:05:49;;;;;;;;;;;19.80;63.40;;;;;;5050565;28;1267;-69
2023/05/07 05:08:14;;;;;;;;;;;19.80;63.10;;;;;;5050869;28;809;-69
2023/05/07 05:10:41;;;;;;;;;;;19.90;62.80;;;;;;5050599;28;1965;-69
2023/05/07 05:13:06;;;;;;;;;;;20.00;62.50;;;;;;5050192;28;863;-69
2023/05/07 05:15:32;;;;;;;;;;;20.10;62.30;;;;;;5050373;28;1260;-70
2023/05/07 05:17:57;;;;;;;;;;;20.20;62.10;;;;;;5050008;28;1022;-69
2023/05/07 05:20:23;;;;;;;;;;;20.30;61.80;;;;;;5044677;28;1910;-70
2023/05/07 05:22:48;;;;;;;;;;;20.30;61.60;;;;;;5049427;28;2092;-69
2023/05/07 05:25:14;;;;;;;;;;;20.40;61.40;;;;;;5049928;28;1278;-69
2023/05/07 05:27:39;;;;;;;;;;;20.40;61.20;;;;;;5049584;28;861;-70
2023/05/07 05:30:05;;;;;;;;;;;20.50;61.00;;;;;;5082685;28;1965;-73
2023/05/07 05:32:31;;;;;;;;;;;20.50;60.90;;;;;;5081067;28;1328;-68
2023/05/07 05:34:56;;;;;;;;;;;20.60;60.80;;;;;;5050050;28;1222;-69
2023/05/07 05:37:22;;;;;;;;;;;20.60;60.70;;;;;;5050201;28;879;-68
2023/05/07 05:39:47;;;;;;;;;;;20.60;60.60;;;;;;5050326;28;884;-69
2023/05/07 05:42:13;;;;;;;;;;;20.60;60.50;;;;;;5050085;28;840;-69
2023/05/07 05:44:38;;;;;;;;;;;20.70;60.50;;;;;;5049944;28;1231;-70
2023/05/07 05:47:04;;;;;;;;;;;20.70;60.40;;;;;;5050084;28;822;-69
2023/05/07 05:49:29;;;;;;;;;;;20.70;60.30;;;;;;5049937;28;938;-69
2023/05/07 05:51:55;;;;;;;;;;;20.70;60.20;;;;;;5050184;28;1961;-69
2023/05/07 05:54:21;;;;;;;;;;;20.70;60.20;;;;;;5049663;28;1372;-69
2023/05/07 05:56:46;;;;;;;;;;;20.80;60.20;;;;;;5049989;28;1018;-69
2023/05/07 05:59:12;;;;;;;;;;;20.80;60.10;;;;;;5049658;28;951;-69
2023/05/07 06:01:37;;;;;;;;;;;20.80;60.20;;;;;;5041947;28;1142;-71
2023/05/07 06:04:03;;;;;;;;;;;20.80;60.10;;;;;;5048768;28;831;-71
2023/05/07 06:06:29;;;;;;;;;;;20.80;60.10;;;;;;5043007;28;1529;-71
2023/05/07 06:08:54;;;;;;;;;;;20.80;60.20;;;;;;5049826;28;998;-70
2023/05/07 06:11:20;;;;;;;;;;;20.80;60.20;;;;;;5039967;28;1961;-69
2023/05/07 06:13:45;;;;;;;;;;;20.80;60.20;;;;;;5081980;28;784;-68
2023/05/07 06:16:11;;;;;;;;;;;20.80;60.30;;;;;;5049493;28;1282;-68
2023/05/07 06:18:36;;;;;;;;;;;20.80;60.30;;;;;;5049729;28;896;-68
2023/05/07 06:21:02;;;;;;;;;;;20.80;60.50;;;;;;5043111;28;2101;-68
2023/05/07 06:23:27;;;;;;;;;;;20.70;60.50;;;;;;5074638;28;1348;-68
2023/05/07 06:25:52;;;;;;;;;;;20.70;60.60;;;;;;5048754;28;2297;-69
2023/05/07 06:28:18;;;;;;;;;;;20.70;60.70;;;;;;5084770;28;911;-68
2023/05/07 06:30:43;;;;;;;;;;;20.70;60.80;;;;;;5053266;28;1898;-69
2023/05/07 06:33:09;;;;;;;;;;;20.70;60.90;;;;;;5053841;28;1073;-68
2023/05/07 06:35:34;;;;;;;;;;;20.60;60.90;;;;;;5053999;28;1314;-68
2023/05/07 06:38:00;;;;;;;;;;;20.60;61.00;;;;;;5053134;28;1321;-68
2023/05/07 06:40:25;;;;;;;;;;;20.60;61.10;;;;;;5053425;28;824;-69
2023/05/07 06:42:51;;;;;;;;;;;20.60;61.10;;;;;;5053213;28;894;-69
2023/05/07 06:45:16;;;;;;;;;;;20.60;61.20;;;;;;5052884;28;1270;-69
2023/05/07 06:47:42;;;;;;;;;;;20.60;61.20;;;;;;5051920;28;817;-69
2023/05/07 06:50:08;;;;;;;;;;;20.60;61.30;;;;;;5053294;28;1902;-68
2023/05/07 06:52:33;;;;;;;;;;;20.60;61.30;;;;;;5051844;28;857;-68
2023/05/07 06:54:59;;;;;;;;;;;20.60;61.40;;;;;;5052884;28;1275;-69
2023/05/07 06:57:25;;;;;;;;;;;20.60;61.30;;;;;;5053264;28;859;-71
2023/05/07 06:59:50;;;;;;;;;;;20.60;61.30;;;;;;5052389;28;780;-72
2023/05/07 07:02:16;;;;;;;;;;;20.60;61.30;;;;;;5053180;28;1991;-70
2023/05/07 07:04:41;;;;;;;;;;;20.60;61.20;;;;;;5052838;28;1988;-70
2023/05/07 07:07:07;;;;;;;;;;;20.60;61.20;;;;;;5052900;28;1245;-70
2023/05/07 07:09:32;;;;;;;;;;;20.60;61.20;;;;;;5053044;28;1464;-70
2023/05/07 07:11:58;;;;;;;;;;;20.60;61.20;;;;;;5053181;28;1906;-70
2023/05/07 07:14:23;;;;;;;;;;;20.60;61.30;;;;;;5085323;28;1283;-71
2023/05/07 07:16:49;;;;;;;;;;;20.50;61.30;;;;;;5085478;28;1041;-71
2023/05/07 07:19:15;;;;;;;;;;;20.60;61.40;;;;;;5051809;28;1387;-70
2023/05/07 07:21:41;;;;;;;;;;;20.60;61.40;;;;;;5081884;28;1880;-70
2023/05/07 07:24:10;;;;;;;;;;;20.50;61.80;;;;;;5053974;28;1443;-71
2023/05/07 07:26:36;;;;;;;;;;;20.60;62.50;;;;;;5069339;28;1244;-71
2023/05/07 07:29:01;;;;;;;;;;;20.60;63.00;;;;;;5082504;28;1440;-70
2023/05/07 07:31:27;;;;;;;;;;;20.60;63.20;;;;;;5052071;28;1961;-70
2023/05/07 07:33:52;;;;;;;;;;;20.50;63.20;;;;;;5052157;28;1331;-71
2023/05/07 07:36:18;;;;;;;;;;;20.50;63.20;;;;;;5052836;28;1282;-71
2023/05/07 07:38:43;;;;;;;;;;;20.50;63.40;;;;;;5052452;28;852;-70
2023/05/07 07:41:09;;;;;;;;;;;20.50;63.60;;;;;;5052423;28;835;-70
2023/05/07 07:43:35;;;;;;;;;;;20.50;63.70;;;;;;5052155;28;955;-71
2023/05/07 07:46:00;;;;;;;;;;;20.50;63.70;;;;;;5052169;28;1260;-71
2023/05/07 07:48:26;;;;;;;;;;;20.50;63.90;;;;;;5051717;28;2538;-69
2023/05/07 07:50:51;;;;;;;;;;;20.40;64.00;;;;;;5051938;28;1957;-68
2023/05/07 07:53:17;;;;;;;;;;;20.40;64.10;;;;;;5051539;28;1894;-69
2023/05/07 07:55:43;;;;;;;;;;;20.40;64.20;;;;;;5046622;28;1981;-69
2023/05/07 07:58:08;;;;;;;;;;;20.40;64.40;;;;;;5049854;28;1533;-69
2023/05/07 08:00:33;;;;;;;;;;;20.40;64.60;;;;;;5050215;28;1405;-68
2023/05/07 08:03:00;;;;;;;;;;;20.40;64.90;;;;;;5051552;28;829;-68
2023/05/07 08:05:25;;;;;;;;;;;20.40;65.20;;;;;;5051573;28;1255;-69
2023/05/07 08:07:52;;;;;;;;;;;20.40;65.70;;;;;;5050073;28;868;-69
2023/05/07 08:10:21;;;;;;;;;;;20.40;65.70;;;;;;5050761;28;1955;-68
2023/05/07 08:12:49;;;;;;;;;;;20.40;66.00;;;;;;5051974;28;860;-69
2023/05/07 08:15:15;;;;;;;;;;;20.40;66.40;;;;;;5052032;28;1288;-69
2023/05/07 08:17:40;;;;;;;;;;;20.40;66.50;;;;;;5052869;28;853;-69
2023/05/07 08:20:06;;;;;;;;;;;20.40;66.70;;;;;;5053111;28;945;-69
2023/05/07 08:22:32;;;;;;;;;;;20.40;66.80;;;;;;5051450;28;857;-68
2023/05/07 08:24:57;;;;;;;;;;;20.40;67.10;;;;;;5051005;28;1204;-69
2023/05/07 08:27:22;;;;;;;;;;;20.40;67.20;;;;;;5051294;28;918;-69
2023/05/07 08:29:48;;;;;;;;;;;20.40;67.40;;;;;;5051499;28;909;-68
2023/05/07 08:32:14;;;;;;;;;;;20.40;67.70;;;;;;5051081;28;1902;-68
2023/05/07 08:34:40;;;;;;;;;;;20.40;67.70;;;;;;5051848;28;1389;-69
2023/05/07 08:37:05;;;;;;;;;;;20.40;67.40;;;;;;5051295;28;842;-69
2023/05/07 08:39:31;;;;;;;;;;;20.40;67.30;;;;;;5083440;28;807;-69
2023/05/07 08:41:57;;;;;;;;;;;20.40;67.20;;;;;;5051158;28;771;-70
2023/05/07 08:44:22;;;;;;;;;;;20.40;67.50;;;;;;5050825;28;1299;-69
2023/05/07 08:46:49;;;;;;;;;;;20.40;67.50;;;;;;5047973;28;1967;-69
2023/05/07 08:49:15;;;;;;;;;;;20.40;67.50;;;;;;5049297;28;2334;-69
2023/05/07 08:51:41;;;;;;;;;;;20.40;67.20;;;;;;5082187;28;1902;-69
2023/05/07 08:54:07;;;;;;;;;;;20.40;67.70;;;;;;5049825;28;1425;-70
2023/05/07 08:56:32;;;;;;;;;;;20.30;67.50;;;;;;5048837;28;1246;-69
2023/05/07 08:58:58;;;;;;;;;;;20.40;67.40;;;;;;5082040;28;851;-69
2023/05/07 09:01:24;;;;;;;;;;;20.40;67.30;;;;;;5050663;28;902;-69
2023/05/07 09:03:50;;;;;;;;;;;20.30;67.40;;;;;;5082779;28;796;-69
2023/05/07 09:06:15;;;;;;;;;;;20.30;67.50;;;;;;5082241;28;2130;-69
2023/05/07 09:08:41;;;;;;;;;;;20.30;67.50;;;;;;5050639;28;1251;-69
2023/05/07 09:11:06;;;;;;;;;;;20.30;67.60;;;;;;5050300;28;1914;-69
2023/05/07 09:13:32;;;;;;;;;;;20.30;67.60;;;;;;5050425;28;1395;-69
2023/05/07 09:15:57;;;;;;;;;;;20.30;67.70;;;;;;5050168;28;1414;-69
2023/05/07 09:18:26;;;;;;;;;;;20.20;67.60;;;;;;5050300;28;880;-69
2023/05/07 09:20:51;;;;;;;;;;;20.20;67.70;;;;;;5050472;28;958;-69
2023/05/07 09:23:16;;;;;;;;;;;20.20;67.80;;;;;;5049511;28;2276;-69
2023/05/07 09:25:42;;;;;;;;;;;20.20;68.00;;;;;;5082212;28;1682;-69
2023/05/07 09:28:09;;;;;;;;;;;20.20;68.10;;;;;;5050316;28;1346;-69
2023/05/07 09:30:35;;;;;;;;;;;20.20;68.40;;;;;;5050114;28;1957;-69
2023/05/07 09:33:01;;;;;;;;;;;20.20;68.60;;;;;;5049522;28;2361;-69
2023/05/07 09:35:27;;;;;;;;;;;20.20;68.90;;;;;;5050112;28;1345;-69
2023/05/07 09:37:53;;;;;;;;;;;20.20;68.90;;;;;;5050414;28;1432;-69
2023/05/07 09:40:25;;;;;;;;;;;20.20;68.80;;;;;;5050069;28;813;-69
2023/05/07 09:42:50;;;;;;;;;;;20.20;69.10;;;;;;5064572;28;1234;-69
2023/05/07 09:45:20;;;;;;;;;;;20.20;69.40;;;;;;5082321;28;1298;-69
2023/05/07 09:47:47;;;;;;;;;;;20.20;69.50;;;;;;5082326;28;1082;-69
2023/05/07 09:50:12;;;;;;;;;;;20.20;69.80;;;;;;5081598;28;1901;-69
2023/05/07 09:52:38;;;;;;;;;;;20.30;69.60;;;;;;5049979;28;862;-69
2023/05/07 09:55:05;;;;;;;;;;;20.30;69.80;;;;;;5081707;28;1234;-69
2023/05/07 09:57:31;;;;;;;;;;;20.30;69.70;;;;;;5046635;28;1062;-69
2023/05/07 09:59:56;;;;;;;;;;;20.30;69.60;;;;;;5049478;28;858;-69
2023/05/07 10:02:22;;;;;;;;;;;20.30;69.50;;;;;;5084449;28;824;-69
2023/05/07 10:04:47;;;;;;;;;;;20.40;69.70;;;;;;5051384;28;1374;-69
2023/05/07 10:07:13;;;;;;;;;;;20.40;69.90;;;;;;5054221;28;930;-69
2023/05/07 10:09:39;;;;;;;;;;;20.40;70.40;;;;;;5055624;28;879;-69
2023/05/07 10:12:05;;;;;;;;;;;20.40;70.40;;;;;;5054086;28;1977;-69
2023/05/07 10:14:31;;;;;;;;;;;20.40;70.50;;;;;;5085763;28;1362;-69
2023/05/07 10:16:57;;;;;;;;;;;20.30;70.40;;;;;;5047358;28;1148;-69
2023/05/07 10:19:22;;;;;;;;;;;20.30;70.40;;;;;;5052703;28;896;-69
2023/05/07 10:21:59;;;;;;;;;;;20.30;70.40;;;;;;5053943;28;1030;-69
2023/05/07 10:24:25;;;;;;;;;;;20.30;70.50;;;;;;5052380;28;1322;-69
2023/05/07 10:26:51;;;;;;;;;;;20.30;70.70;;;;;;5052859;28;835;-69
2023/05/07 10:29:28;;;;;;;;;;;20.30;70.90;;;;;;5053659;28;953;-69
2023/05/07 10:31:56;;;;;;;;;;;20.30;70.70;;;;;;5053738;28;1914;-70
2023/05/07 10:34:23;;;;;;;;;;;20.30;70.80;;;;;;5086030;28;1453;-70
2023/05/07 10:36:48;;;;;;;;;;;20.30;70.90;;;;;;5085887;28;892;-70
2023/05/07 10:39:14;;;;;;;;;;;20.30;70.90;;;;;;5086057;28;1249;-70
2023/05/07 10:41:39;;;;;;;;;;;20.40;70.80;;;;;;5085553;28;1226;-70
2023/05/07 10:44:05;;;;;;;;;;;20.40;70.60;;;;;;5052830;28;884;-70
2023/05/07 10:46:34;;;;;;;;;;;20.30;70.70;;;;;;5051169;28;2197;-70
2023/05/07 10:49:00;;;;;;;;;;;20.30;70.60;;;;;;5052769;28;1340;-69
2023/05/07 10:51:25;;;;;;;;;;;20.40;70.30;;;;;;5052376;28;1967;-69
2023/05/07 10:54:10;;;;;;;;;;;20.40;70.30;;;;;;5052775;28;1354;-69
2023/05/07 10:56:35;;;;;;;;;;;20.40;70.20;;;;;;5065502;28;1257;-70
2023/05/07 10:59:31;;;;;;;;;;;20.40;70.00;;;;;;5053142;28;912;-69
2023/05/07 11:02:02;;;;;;;;;;;20.40;69.90;;;;;;5049180;28;1256;-69
2023/05/07 11:04:27;;;;;;;;;;;20.40;69.80;;;;;;5051690;28;1259;-69
2023/05/07 11:07:08;;;;;;;;;;;20.40;69.70;;;;;;5035444;28;1151;-69
2023/05/07 11:09:52;;;;;;;;;;;20.40;69.90;;;;;;5052110;28;1903;-69
2023/05/07 11:12:36;;;;;;;;;;;20.40;69.90;;;;;;5052144;28;1981;-68
2023/05/07 11:15:17;;;;;;;;;;;20.30;69.80;;;;;;5052288;28;1297;-68
2023/05/07 11:17:58;;;;;;;;;;;20.30;69.90;;;;;;5051343;28;1011;-69
2023/05/07 11:20:43;;;;;;;;;;;20.30;69.90;;;;;;5049872;28;1096;-69
2023/05/07 11:23:14;;;;;;;;;;;20.30;69.80;;;;;;5052202;28;1331;-69
2023/05/07 11:25:39;;;;;;;;;;;20.30;69.70;;;;;;5083159;28;2311;-69
2023/05/07 11:28:06;;;;;;;;;;;20.30;70.00;;;;;;5052341;28;1358;-69
2023/05/07 11:30:31;;;;;;;;;;;20.20;70.00;;;;;;5047635;28;1894;-69
2023/05/07 11:32:57;;;;;;;;;;;20.20;70.00;;;;;;5045355;28;1485;-72
2023/05/07 11:35:22;;;;;;;;;;;20.20;70.10;;;;;;5052303;28;1422;-69
2023/05/07 11:37:48;;;;;;;;;;;20.10;70.20;;;;;;5052495;28;829;-68
2023/05/07 11:40:13;;;;;;;;;;;20.10;70.20;;;;;;5051300;28;858;-68
2023/05/07 11:42:39;;;;;;;;;;;20.10;70.30;;;;;;5051989;28;2108;-70
2023/05/07 11:45:05;;;;;;;;;;;20.10;70.50;;;;;;5083890;28;1416;-71
2023/05/07 11:47:31;;;;;;;;;;;20.10;70.70;;;;;;5050967;28;1527;-69
2023/05/07 11:49:57;;;;;;;;;;;20.10;70.70;;;;;;5084339;28;845;-70
2023/05/07 11:52:23;;;;;;;;;;;20.10;70.60;;;;;;5052347;28;1963;-70
2023/05/07 11:54:49;;;;;;;;;;;20.10;70.80;;;;;;5049855;28;1268;-70
2023/05/07 11:57:14;;;;;;;;;;;20.10;70.90;;;;;;5052746;28;1394;-72
2023/05/07 11:59:40;;;;;;;;;;;20.00;70.90;;;;;;5053962;28;777;-72
2023/05/07 12:02:06;;;;;;;;;;;20.00;71.20;;;;;;5050743;28;817;-72
2023/05/07 12:04:32;;;;;;;;;;;20.00;72.30;;;;;;5051432;28;1246;-71
2023/05/07 12:06:58;;;;;;;;;;;20.00;70.50;;;;;;5051885;28;1014;-71
2023/05/07 12:09:23;;;;;;;;;;;20.00;67.70;;;;;;5050926;28;2354;-71
2023/05/07 12:11:48;;;;;;;;;;;19.90;65.50;;;;;;5052052;28;1910;-70
2023/05/07 12:14:15;;;;;;;;;;;19.90;64.10;;;;;;5046509;28;1260;-71
2023/05/07 12:16:41;;;;;;;;;;;19.80;64.10;;;;;;5050773;28;878;-70
2023/05/07 12:19:08;;;;;;;;;;;19.80;62.70;;;;;;5083945;28;1560;-71
2023/05/07 12:21:34;;;;;;;;;;;19.70;61.70;;;;;;5050051;28;832;-71
2023/05/07 12:24:00;;;;;;;;;;;19.70;61.30;;;;;;5045226;28;872;-71
2023/05/07 12:26:25;;;;;;;;;;;19.60;60.80;;;;;;5051238;28;1316;-69
2023/05/07 12:28:51;;;;;;;;;;;19.60;60.10;;;;;;5082949;28;2146;-70
2023/05/07 12:31:16;;;;;;;;;;;19.50;59.70;;;;;;5050737;28;1985;-70
2023/05/07 12:33:42;;;;;;;;;;;19.50;59.50;;;;;;5049423;28;1877;-70
2023/05/07 12:36:08;;;;;;;;;;;19.40;58.90;;;;;;5051170;28;1607;-70
2023/05/07 12:38:40;;;;;;;;;;;19.40;58.80;;;;;;5051047;28;1250;-70
2023/05/07 12:41:06;;;;;;;;;;;19.40;58.50;;;;;;5051539;28;825;-70
2023/05/07 12:43:32;;;;;;;;;;;19.40;58.00;;;;;;5045061;28;838;-70
2023/05/07 12:45:59;;;;;;;;;;;19.40;58.00;;;;;;5051103;28;1350;-70
2023/05/07 12:48:26;;;;;;;;;;;19.30;57.60;;;;;;5051203;28;820;-70
2023/05/07 12:50:55;;;;;;;;;;;19.30;56.90;;;;;;5051118;28;1906;-69
2023/05/07 12:53:21;;;;;;;;;;;19.30;56.90;;;;;;5050852;28;891;-70
2023/05/07 12:55:47;;;;;;;;;;;19.30;56.20;;;;;;5049778;28;1347;-70
2023/05/07 12:58:27;;;;;;;;;;;19.20;56.10;;;;;;5049423;28;1701;-69
2023/05/07 13:00:52;;;;;;;;;;;19.20;56.50;;;;;;5050738;28;982;-70
2023/05/07 13:03:28;;;;;;;;;;;19.20;56.70;;;;;;5046244;28;847;-69
2023/05/07 13:05:54;;;;;;;;;;;19.20;57.20;;;;;;5049782;28;1338;-70
2023/05/07 13:08:30;;;;;;;;;;;19.20;57.40;;;;;;5048458;28;883;-71
2023/05/07 13:10:56;;;;;;;;;;;19.20;58.10;;;;;;5083017;28;1976;-71
2023/05/07 13:13:22;;;;;;;;;;;19.20;58.70;;;;;;5050505;28;1172;-72
2023/05/07 13:15:48;;;;;;;;;;;19.20;59.20;;;;;;5082979;28;1278;-69
2023/05/07 13:18:14;;;;;;;;;;;19.20;59.60;;;;;;5050432;28;1834;-69
2023/05/07 13:20:39;;;;;;;;;;;19.10;58.50;;;;;;5050669;28;856;-69
2023/05/07 13:23:05;;;;;;;;;;;19.20;59.20;;;;;;5050058;28;1651;-70
2023/05/07 13:25:30;;;;;;;;;;;19.10;59.70;;;;;;5080981;28;1890;-70
2023/05/07 13:27:59;;;;;;;;;;;19.10;60.10;;;;;;5048659;28;1308;-70
2023/05/07 13:30:25;;;;;;;;;;;19.10;60.50;;;;;;5081296;28;1979;-70
2023/05/07 13:32:52;;;;;;;;;;;19.10;60.50;;;;;;5043003;28;1238;-68
2023/05/07 13:35:17;;;;;;;;;;;19.10;61.00;;;;;;5047712;28;2283;-69
2023/05/07 13:37:42;;;;;;;;;;;19.10;61.40;;;;;;5049788;28;1317;-68
2023/05/07 13:40:08;;;;;;;;;;;19.10;61.50;;;;;;5050006;28;1454;-69
2023/05/07 13:42:34;;;;;;;;;;;19.10;61.70;;;;;;5050321;28;951;-68
2023/05/07 13:45:00;;;;;;;;;;;19.10;61.50;;;;;;5050013;28;1302;-69
2023/05/07 13:47:25;;;;;;;;;;;19.10;61.70;;;;;;5052283;28;841;-69
2023/05/07 13:49:51;;;;;;;;;;;19.10;61.80;;;;;;5050664;28;761;-69
2023/05/07 13:52:16;;;;;;;;;;;19.10;62.10;;;;;;5050063;28;1969;-69
2023/05/07 13:54:42;;;;;;;;;;;19.10;62.30;;;;;;5049887;28;1341;-69
2023/05/07 13:57:07;;;;;;;;;;;19.10;62.40;;;;;;5049969;28;1018;-69
2023/05/07 13:59:33;;;;;;;;;;;19.10;62.30;;;;;;5045431;28;887;-69
2023/05/07 14:01:58;;;;;;;;;;;19.10;62.30;;;;;;5049901;28;1322;-69
2023/05/07 14:04:24;;;;;;;;;;;19.10;62.40;;;;;;5049821;28;1406;-69
2023/05/07 14:06:49;;;;;;;;;;;19.00;62.30;;;;;;5048174;28;1199;-69
2023/05/07 14:09:15;;;;;;;;;;;19.00;62.50;;;;;;5049150;28;1539;-69
2023/05/07 14:11:40;;;;;;;;;;;19.00;62.70;;;;;;5049070;28;1965;-69
2023/05/07 14:14:06;;;;;;;;;;;19.00;62.20;;;;;;5049473;28;1055;-69
2023/05/07 14:16:31;;;;;;;;;;;19.00;62.40;;;;;;5082296;28;1524;-69
2023/05/07 14:18:57;;;;;;;;;;;19.00;62.40;;;;;;5049348;28;1432;-68
2023/05/07 14:21:22;;;;;;;;;;;19.00;62.30;;;;;;5049129;28;1402;-69
2023/05/07 14:23:48;;;;;;;;;;;19.00;61.50;;;;;;5048347;28;1302;-69
2023/05/07 14:26:13;;;;;;;;;;;18.90;60.40;;;;;;5049295;28;1293;-69
2023/05/07 14:28:39;;;;;;;;;;;18.90;59.00;;;;;;5050145;28;920;-69
2023/05/07 14:31:06;;;;;;;;;;;18.90;59.00;;;;;;5049818;28;1898;-69